Time;durP1;ratioP1;P1;durP2;ratioP2;P2;SDS_P1;SDS_P2;PMS_P1;PMS_P2;Temp;Humidity;BMP_temperature;BMP_pressure;BME280_temperature;BME280_humidity;BME280_pressure;Samples;Min_cycle;Max_cycle;Signal;HPM_P1;HPM_P2
2021/12/22 00:00:55;;;;;;;;;;;;;;;;;;4864496;29;19912;-76
2021/12/22 00:03:21;;;;;;;;;;;;;;;;;;4881126;29;19912;-76
2021/12/22 00:05:48;;;;;;;;;;;;;;;;;;4881337;29;19915;-76
2021/12/22 00:08:14;;;;;;;;;;;;;;;;;;4881490;29;19914;-76
2021/12/22 00:10:40;;;;;;;;;;;;;;;;;;4880925;29;20018;-76
2021/12/22 00:13:06;;;;;;;;;;;;;;;;;;4880295;29;19908;-76
2021/12/22 00:15:32;;;;;;;;;;;;;;;;;;4881015;29;20288;-76
2021/12/22 00:17:58;;;;;;;;;;;;;;;;;;4880497;29;20357;-76
2021/12/22 00:20:24;;;;;;;;;;;;;;;;;;4881285;29;19915;-76
2021/12/22 00:22:50;;;;;;;;;;;;;;;;;;4880050;29;19907;-76
2021/12/22 00:25:16;;;;;;;;;;;;;;;;;;4880829;29;19916;-76
2021/12/22 00:27:42;;;;;;;;;;;;;;;;;;4880776;29;19908;-76
2021/12/22 00:30:08;;;;;;;;;;;;;;;;;;4881127;29;19908;-76
2021/12/22 00:32:36;;;;;;;;;;;;;;;;;;4880735;29;20296;-76
2021/12/22 00:35:02;;;;;;;;;;;;;;;;;;4880175;29;19908;-76
2021/12/22 00:37:28;;;;;;;;;;;;;;;;;;4880850;29;20003;-76
2021/12/22 00:39:54;;;;;;;;;;;;;;;;;;4880757;29;20470;-76
2021/12/22 00:42:20;;;;;;;;;;;;;;;;;;4880751;29;19912;-76
2021/12/22 00:44:47;;;;;;;;;;;;;;;;;;4881009;29;19922;-76
2021/12/22 00:47:13;;;;;;;;;;;;;;;;;;4880321;29;19908;-76
2021/12/22 00:49:39;;;;;;;;;;;;;;;;;;4879570;29;19980;-76
2021/12/22 00:52:05;;;;;;;;;;;;;;;;;;4879644;29;19915;-76
2021/12/22 00:54:31;;;;;;;;;;;;;;;;;;4874675;29;19911;-76
2021/12/22 00:57:02;;;;;;;;;;;;;;;;;;4879778;29;19907;-76
2021/12/22 00:59:28;;;;;;;;;;;;;;;;;;4880313;29;19908;-76
2021/12/22 01:01:54;;;;;;;;;;;;;;;;;;4879952;29;19912;-76
2021/12/22 01:04:20;;;;;;;;;;;;;;;;;;4880273;29;19915;-76
2021/12/22 01:06:46;;;;;;;;;;;;;;;;;;4879714;29;19912;-76
2021/12/22 01:09:12;;;;;;;;;;;;;;;;;;4880345;29;19979;-76
2021/12/22 01:11:38;;;;;;;;;;;;;;;;;;4879853;29;19918;-76
2021/12/22 01:14:04;;;;;;;;;;;;;;;;;;4879956;29;20006;-76
2021/12/22 01:16:29;;;;;;;;;;;;;;;;;;4879799;29;20283;-76
2021/12/22 01:18:58;;;;;;;;;;;;;;;;;;4880190;29;19908;-76
2021/12/22 01:21:38;;;;;;;;;;;;;;;;;;4879868;29;19918;-76
2021/12/22 01:26:41;;;;;;;;;;;;;;;;;;4879648;29;19916;-76
2021/12/22 01:29:06;;;;;;;;;;;;;;;;;;4879569;29;20360;-76
2021/12/22 01:31:33;;;;;;;;;;;;;;;;;;4860899;29;19976;-76
2021/12/22 01:33:59;;;;;;;;;;;;;;;;;;4861380;29;19908;-76
2021/12/22 01:36:25;;;;;;;;;;;;;;;;;;4861138;29;19914;-76
2021/12/22 01:38:51;;;;;;;;;;;;;;;;;;4861025;29;20314;-76
2021/12/22 01:41:17;;;;;;;;;;;;;;;;;;4861073;29;19912;-76
2021/12/22 01:43:43;;;;;;;;;;;;;;;;;;4860953;29;20297;-76
2021/12/22 01:46:32;;;;;;;;;;;;;;;;;;4877492;29;19912;-76
2021/12/22 01:49:13;;;;;;;;;;;;;;;;;;4878717;29;20301;-76
2021/12/22 01:51:39;;;;;;;;;;;;;;;;;;4879145;29;19912;-76
2021/12/22 01:54:05;;;;;;;;;;;;;;;;;;4879741;29;19955;-76
2021/12/22 01:56:33;;;;;;;;;;;;;;;;;;4879037;29;20373;-76
2021/12/22 01:58:59;;;;;;;;;;;;;;;;;;4878892;29;19914;-76
2021/12/22 02:01:25;;;;;;;;;;;;;;;;;;4878977;29;19916;-76
2021/12/22 02:03:51;;;;;;;;;;;;;;;;;;4878747;29;20001;-76
2021/12/22 02:06:17;;;;;;;;;;;;;;;;;;4879347;29;19907;-76
2021/12/22 02:08:46;;;;;;;;;;;;;;;;;;4879218;29;19998;-76
2021/12/22 02:11:12;;;;;;;;;;;;;;;;;;4878539;29;20011;-76
2021/12/22 02:13:41;;;;;;;;;;;;;;;;;;4878469;29;19959;-76
2021/12/22 02:16:10;;;;;;;;;;;;;;;;;;4879131;29;20348;-76
2021/12/22 02:18:36;;;;;;;;;;;;;;;;;;4878892;29;19922;-76
2021/12/22 02:21:02;;;;;;;;;;;;;;;;;;4879265;29;20285;-76
2021/12/22 02:23:28;;;;;;;;;;;;;;;;;;4878947;29;19908;-76
2021/12/22 02:25:58;;;;;;;;;;;;;;;;;;4858543;29;19957;-76
2021/12/22 02:28:29;;;;;;;;;;;;;;;;;;4879098;29;19956;-76
2021/12/22 02:30:55;;;;;;;;;;;;;;;;;;4878990;29;20373;-76
2021/12/22 02:33:33;;;;;;;;;;;;;;;;;;4861810;29;19979;-76
2021/12/22 02:36:08;;;;;;;;;;;;;;;;;;4878635;29;19908;-76
2021/12/22 02:38:34;;;;;;;;;;;;;;;;;;4879174;29;19983;-76
2021/12/22 02:41:00;;;;;;;;;;;;;;;;;;4878787;29;20002;-76
2021/12/22 02:43:31;;;;;;;;;;;;;;;;;;4878459;29;19908;-76
2021/12/22 02:45:57;;;;;;;;;;;;;;;;;;4878050;29;19998;-76
2021/12/22 02:48:23;;;;;;;;;;;;;;;;;;4871502;29;20061;-76
2021/12/22 02:50:49;;;;;;;;;;;;;;;;;;4877873;29;19911;-76
2021/12/22 02:53:16;;;;;;;;;;;;;;;;;;4861518;29;19920;-76
2021/12/22 02:58:09;;;;;;;;;;;;;;;;;;4859774;29;19908;-76
2021/12/22 03:00:49;;;;;;;;;;;;;;;;;;4859943;29;20297;-76
2021/12/22 03:05:53;;;;;;;;;;;;;;;;;;4865626;29;19972;-76
2021/12/22 03:08:19;;;;;;;;;;;;;;;;;;4878630;29;19915;-76
2021/12/22 03:10:45;;;;;;;;;;;;;;;;;;4876981;29;19915;-76
2021/12/22 03:13:11;;;;;;;;;;;;;;;;;;4877973;29;19964;-76
2021/12/22 03:15:36;;;;;;;;;;;;;;;;;;4878765;29;19908;-76
2021/12/22 03:18:04;;;;;;;;;;;;;;;;;;4878645;29;19918;-76
2021/12/22 03:20:30;;;;;;;;;;;;;;;;;;4879589;29;20355;-76
2021/12/22 03:22:56;;;;;;;;;;;;;;;;;;4881944;29;19947;-76
2021/12/22 03:25:26;;;;;;;;;;;;;;;;;;4882132;29;19908;-76
2021/12/22 03:27:52;;;;;;;;;;;;;;;;;;4881984;29;19914;-76
2021/12/22 03:30:18;;;;;;;;;;;;;;;;;;4881609;29;19915;-76
2021/12/22 03:32:44;;;;;;;;;;;;;;;;;;4881976;29;19914;-76
2021/12/22 03:35:16;;;;;;;;;;;;;;;;;;4881088;29;19911;-76
2021/12/22 03:37:42;;;;;;;;;;;;;;;;;;4881845;29;19908;-76
2021/12/22 03:40:07;;;;;;;;;;;;;;;;;;4881378;29;20361;-76
2021/12/22 03:42:33;;;;;;;;;;;;;;;;;;4880933;29;19922;-76
2021/12/22 03:44:59;;;;;;;;;;;;;;;;;;4881823;29;19907;-76
2021/12/22 03:47:26;;;;;;;;;;;;;;;;;;4881481;29;19934;-76
2021/12/22 03:49:52;;;;;;;;;;;;;;;;;;4881354;29;19915;-76
2021/12/22 03:52:18;;;;;;;;;;;;;;;;;;4881654;29;20404;-76
2021/12/22 03:54:44;;;;;;;;;;;;;;;;;;4877867;29;19912;-76
2021/12/22 03:57:10;;;;;;;;;;;;;;;;;;4862804;29;19934;-76
2021/12/22 03:59:36;;;;;;;;;;;;;;;;;;4862877;29;19923;-76
2021/12/22 04:02:01;;;;;;;;;;;;;;;;;;4863001;29;19919;-76
2021/12/22 04:04:27;;;;;;;;;;;;;;;;;;4862819;29;19908;-76
2021/12/22 04:06:53;;;;;;;;;;;;;;;;;;4862826;29;20365;-76
2021/12/22 04:09:26;;;;;;;;;;;;;;;;;;4863008;29;19912;-76
2021/12/22 04:11:52;;;;;;;;;;;;;;;;;;4864464;29;20049;-76
2021/12/22 04:14:18;;;;;;;;;;;;;;;;;;4864345;29;20018;-76
2021/12/22 04:16:44;;;;;;;;;;;;;;;;;;4879606;29;19912;-76
2021/12/22 04:19:10;;;;;;;;;;;;;;;;;;4846422;29;19908;-76
2021/12/22 04:21:36;;;;;;;;;;;;;;;;;;4862651;29;19915;-76
2021/12/22 04:24:02;;;;;;;;;;;;;;;;;;4864096;29;19970;-76
2021/12/22 04:26:31;;;;;;;;;;;;;;;;;;4881126;29;19911;-76
2021/12/22 04:28:57;;;;;;;;;;;;;;;;;;4881174;29;19954;-76
2021/12/22 04:31:23;;;;;;;;;;;;;;;;;;4880084;29;19967;-76
2021/12/22 04:33:49;;;;;;;;;;;;;;;;;;4849090;29;20350;-76
2021/12/22 04:36:15;;;;;;;;;;;;;;;;;;4867352;29;20011;-76
2021/12/22 04:38:41;;;;;;;;;;;;;;;;;;4880863;29;19907;-76
2021/12/22 04:41:07;;;;;;;;;;;;;;;;;;4880681;29;19918;-76
2021/12/22 04:43:33;;;;;;;;;;;;;;;;;;4880596;29;19915;-76
2021/12/22 04:45:59;;;;;;;;;;;;;;;;;;4880507;29;20279;-76
2021/12/22 04:48:24;;;;;;;;;;;;;;;;;;4880552;29;19915;-76
2021/12/22 04:50:51;;;;;;;;;;;;;;;;;;4880179;29;19914;-76
2021/12/22 04:53:26;;;;;;;;;;;;;;;;;;4879173;29;20010;-76
2021/12/22 04:55:52;;;;;;;;;;;;;;;;;;4880395;29;19999;-76
2021/12/22 04:58:18;;;;;;;;;;;;;;;;;;4880056;29;19947;-76
2021/12/22 05:00:44;;;;;;;;;;;;;;;;;;4880002;29;19935;-76
2021/12/22 05:03:10;;;;;;;;;;;;;;;;;;4880591;29;19915;-75
2021/12/22 05:05:36;;;;;;;;;;;;;;;;;;4880369;29;19940;-75
2021/12/22 05:08:02;;;;;;;;;;;;;;;;;;4879829;29;19979;-76
2021/12/22 05:10:28;;;;;;;;;;;;;;;;;;4880162;29;19979;-75
2021/12/22 05:12:54;;;;;;;;;;;;;;;;;;4879338;29;20364;-75
2021/12/22 05:15:21;;;;;;;;;;;;;;;;;;4879881;29;19919;-76
2021/12/22 05:20:13;;;;;;;;;;;;;;;;;;4879601;29;19908;-75
2021/12/22 05:22:39;;;;;;;;;;;;;;;;;;4879958;29;19915;-75
2021/12/22 05:25:05;;;;;;;;;;;;;;;;;;4878713;29;20108;-75
2021/12/22 05:27:31;;;;;;;;;;;;;;;;;;4863130;29;19919;-74
2021/12/22 05:29:57;;;;;;;;;;;;;;;;;;4879874;29;19904;-77
2021/12/22 05:32:27;;;;;;;;;;;;;;;;;;4863121;29;20386;-76
2021/12/22 05:34:53;;;;;;;;;;;;;;;;;;4880142;29;19915;-76
2021/12/22 05:37:18;;;;;;;;;;;;;;;;;;4878627;29;19912;-76
2021/12/22 05:39:44;;;;;;;;;;;;;;;;;;4879003;29;19919;-76
2021/12/22 05:42:10;;;;;;;;;;;;;;;;;;4879424;29;20373;-76
2021/12/22 05:44:36;;;;;;;;;;;;;;;;;;4879295;29;19908;-76
2021/12/22 05:47:02;;;;;;;;;;;;;;;;;;4879380;29;19959;-76
2021/12/22 05:49:28;;;;;;;;;;;;;;;;;;4879126;29;19958;-76
2021/12/22 05:51:54;;;;;;;;;;;;;;;;;;4879698;29;19914;-76
2021/12/22 05:54:20;;;;;;;;;;;;;;;;;;4857932;29;20288;-76
2021/12/22 05:56:46;;;;;;;;;;;;;;;;;;4879038;29;19917;-76
2021/12/22 05:59:11;;;;;;;;;;;;;;;;;;4870198;29;19912;-76
2021/12/22 06:01:37;;;;;;;;;;;;;;;;;;4860759;29;20373;-76
2021/12/22 06:04:03;;;;;;;;;;;;;;;;;;4861047;29;19959;-76
2021/12/22 06:06:29;;;;;;;;;;;;;;;;;;4860165;29;19960;-76
2021/12/22 06:08:55;;;;;;;;;;;;;;;;;;4860755;29;19909;-76
2021/12/22 06:11:21;;;;;;;;;;;;;;;;;;4869342;29;19915;-76
2021/12/22 06:13:47;;;;;;;;;;;;;;;;;;4879546;29;19908;-76
2021/12/22 06:16:13;;;;;;;;;;;;;;;;;;4862350;29;20277;-76
2021/12/22 06:18:43;;;;;;;;;;;;;;;;;;4879182;29;19915;-76
2021/12/22 06:21:09;;;;;;;;;;;;;;;;;;4876099;29;20368;-76
2021/12/22 06:23:35;;;;;;;;;;;;;;;;;;4878793;29;19918;-76
2021/12/22 06:26:01;;;;;;;;;;;;;;;;;;4878826;29;19956;-76
2021/12/22 06:28:27;;;;;;;;;;;;;;;;;;4878772;29;19971;-76
2021/12/22 06:30:53;;;;;;;;;;;;;;;;;;4879002;29;20332;-76
2021/12/22 06:33:18;;;;;;;;;;;;;;;;;;4878864;29;19911;-76
2021/12/22 06:35:44;;;;;;;;;;;;;;;;;;4878780;29;20011;-76
2021/12/22 06:38:10;;;;;;;;;;;;;;;;;;4877046;29;20288;-76
2021/12/22 06:40:36;;;;;;;;;;;;;;;;;;4878503;29;19912;-76
2021/12/22 06:43:02;;;;;;;;;;;;;;;;;;4878640;29;19960;-76
2021/12/22 06:45:29;;;;;;;;;;;;;;;;;;4878743;29;19914;-76
2021/12/22 06:47:55;;;;;;;;;;;;;;;;;;4878462;29;19980;-76
2021/12/22 06:50:20;;;;;;;;;;;;;;;;;;4861670;29;19911;-76
2021/12/22 06:52:46;;;;;;;;;;;;;;;;;;4873825;29;20376;-76
2021/12/22 06:55:12;;;;;;;;;;;;;;;;;;4844428;29;19923;-76
2021/12/22 06:57:38;;;;;;;;;;;;;;;;;;4847989;29;19915;-76
2021/12/22 07:00:04;;;;;;;;;;;;;;;;;;4863993;29;19967;-76
2021/12/22 07:02:35;;;;;;;;;;;;;;;;;;4881684;29;20273;-76
2021/12/22 07:05:01;;;;;;;;;;;;;;;;;;4882188;29;19912;-76
2021/12/22 07:07:27;;;;;;;;;;;;;;;;;;4881229;29;20300;-77
2021/12/22 07:09:52;;;;;;;;;;;;;;;;;;4882400;29;19912;-75
2021/12/22 07:12:18;;;;;;;;;;;;;;;;;;4882403;29;19960;-76
2021/12/22 07:14:44;;;;;;;;;;;;;;;;;;4882207;29;20417;-76
2021/12/22 07:17:10;;;;;;;;;;;;;;;;;;4882379;29;19904;-76
2021/12/22 07:19:36;;;;;;;;;;;;;;;;;;4882289;29;19915;-76
2021/12/22 07:22:02;;;;;;;;;;;;;;;;;;4881252;29;20368;-76
2021/12/22 07:24:28;;;;;;;;;;;;;;;;;;4880611;29;20300;-76
2021/12/22 07:26:54;;;;;;;;;;;;;;;;;;4859793;29;19978;-76
2021/12/22 07:29:20;;;;;;;;;;;;;;;;;;4865262;29;19911;-76
2021/12/22 07:31:45;;;;;;;;;;;;;;;;;;4880779;29;19967;-76
2021/12/22 07:34:12;;;;;;;;;;;;;;;;;;4866497;29;19948;-76
2021/12/22 07:36:38;;;;;;;;;;;;;;;;;;4873502;29;20002;-76
2021/12/22 07:39:04;;;;;;;;;;;;;;;;;;4877497;29;20476;-76
2021/12/22 07:41:30;;;;;;;;;;;;;;;;;;4878311;29;19912;-76
2021/12/22 07:43:56;;;;;;;;;;;;;;;;;;4882138;29;20419;-76
2021/12/22 07:46:22;;;;;;;;;;;;;;;;;;4882706;29;19911;-76
2021/12/22 07:48:48;;;;;;;;;;;;;;;;;;4890430;29;20009;-76
2021/12/22 07:51:14;;;;;;;;;;;;;;;;;;4869989;29;20358;-76
2021/12/22 07:53:39;;;;;;;;;;;;;;;;;;4872512;29;19911;-76
2021/12/22 07:56:05;;;;;;;;;;;;;;;;;;4877197;29;19991;-76
2021/12/22 07:58:31;;;;;;;;;;;;;;;;;;4854453;29;19951;-76
2021/12/22 08:00:57;;;;;;;;;;;;;;;;;;4880585;29;20373;-76
2021/12/22 08:03:23;;;;;;;;;;;;;;;;;;4863871;29;19971;-76
2021/12/22 08:05:49;;;;;;;;;;;;;;;;;;4880879;29;20404;-76
2021/12/22 08:08:17;;;;;;;;;;;;;;;;;;4880713;29;19912;-76
2021/12/22 08:10:43;;;;;;;;;;;;;;;;;;4881022;29;19911;-76
2021/12/22 08:13:09;;;;;;;;;;;;;;;;;;4880785;29;19916;-76
2021/12/22 08:15:35;;;;;;;;;;;;;;;;;;4881315;29;19914;-76
2021/12/22 08:18:00;;;;;;;;;;;;;;;;;;4880309;29;19916;-76
2021/12/22 08:20:26;;;;;;;;;;;;;;;;;;4863091;29;19912;-76
2021/12/22 08:22:53;;;;;;;;;;;;;;;;;;4880838;29;19911;-76
2021/12/22 08:25:19;;;;;;;;;;;;;;;;;;4863360;29;20394;-76
2021/12/22 08:27:45;;;;;;;;;;;;;;;;;;4879730;29;20002;-76
2021/12/22 08:30:11;;;;;;;;;;;;;;;;;;4879267;29;20014;-76
2021/12/22 08:32:37;;;;;;;;;;;;;;;;;;4878017;29;20064;-76
2021/12/22 08:35:03;;;;;;;;;;;;;;;;;;4863414;29;19915;-76
2021/12/22 08:40:16;;;;;;;;;;;;;;;;;;4881763;29;19918;-75
2021/12/22 08:42:42;;;;;;;;;;;;;;;;;;4878178;29;19916;-74
2021/12/22 08:45:08;;;;;;;;;;;;;;;;;;4879718;29;19915;-75
2021/12/22 08:47:34;;;;;;;;;;;;;;;;;;4879583;29;20396;-76
2021/12/22 08:50:00;;;;;;;;;;;;;;;;;;4880249;29;19920;-75
2021/12/22 08:52:26;;;;;;;;;;;;;;;;;;4877973;29;20369;-75
2021/12/22 08:54:52;;;;;;;;;;;;;;;;;;4862519;29;19926;-75
2021/12/22 08:57:19;;;;;;;;;;;;;;;;;;4866588;29;19912;-80
2021/12/22 08:59:45;;;;;;;;;;;;;;;;;;4880729;29;19912;-77
2021/12/22 09:02:11;;;;;;;;;;;;;;;;;;4870303;29;20323;-76
2021/12/22 09:04:37;;;;;;;;;;;;;;;;;;4876903;29;19912;-75
2021/12/22 09:07:03;;;;;;;;;;;;;;;;;;4879187;29;19915;-75
2021/12/22 09:09:29;;;;;;;;;;;;;;;;;;4880089;29;19968;-76
2021/12/22 09:11:55;;;;;;;;;;;;;;;;;;4862700;29;20389;-77
2021/12/22 09:14:21;;;;;;;;;;;;;;;;;;4880068;29;19916;-76
2021/12/22 09:16:48;;;;;;;;;;;;;;;;;;4879737;29;19919;-76
2021/12/22 09:19:14;;;;;;;;;;;;;;;;;;4878910;29;19919;-76
2021/12/22 09:21:40;;;;;;;;;;;;;;;;;;4879980;29;19916;-76
2021/12/22 09:24:06;;;;;;;;;;;;;;;;;;4869066;29;20288;-75
2021/12/22 09:26:32;;;;;;;;;;;;;;;;;;4878292;29;19915;-75
2021/12/22 09:28:58;;;;;;;;;;;;;;;;;;4863070;29;19919;-75
2021/12/22 09:31:24;;;;;;;;;;;;;;;;;;4879348;29;19944;-75
2021/12/22 09:33:49;;;;;;;;;;;;;;;;;;4865737;29;19984;-75
2021/12/22 09:36:15;;;;;;;;;;;;;;;;;;4861074;29;19919;-76
2021/12/22 09:38:41;;;;;;;;;;;;;;;;;;4861266;29;19912;-75
2021/12/22 09:41:07;;;;;;;;;;;;;;;;;;4844608;29;20396;-75
2021/12/22 09:43:33;;;;;;;;;;;;;;;;;;4860896;29;19991;-75
2021/12/22 09:46:04;;;;;;;;;;;;;;;;;;4865820;29;19911;-85
2021/12/22 09:48:46;;;;;;;;;;;;;;;;;;4876655;29;20436;-77
2021/12/22 09:53:38;;;;;;;;;;;;;;;;;;4861214;29;20000;-79
2021/12/22 09:56:04;;;;;;;;;;;;;;;;;;4860421;29;20297;-76
2021/12/22 09:58:30;;;;;;;;;;;;;;;;;;4878533;29;19912;-76
2021/12/22 10:00:56;;;;;;;;;;;;;;;;;;4879207;29;19976;-76
2021/12/22 10:03:22;;;;;;;;;;;;;;;;;;4878811;29;20665;-76
2021/12/22 10:05:48;;;;;;;;;;;;;;;;;;4879315;29;19911;-76
2021/12/22 10:08:14;;;;;;;;;;;;;;;;;;4862684;29;19907;-76
2021/12/22 10:10:40;;;;;;;;;;;;;;;;;;4878514;29;19987;-75
2021/12/22 10:13:06;;;;;;;;;;;;;;;;;;4877197;29;19960;-75
2021/12/22 10:15:33;;;;;;;;;;;;;;;;;;4860495;29;19915;-75
2021/12/22 10:17:59;;;;;;;;;;;;;;;;;;4860571;29;20007;-74
2021/12/22 10:20:25;;;;;;;;;;;;;;;;;;4860328;29;19988;-74
2021/12/22 10:22:51;;;;;;;;;;;;;;;;;;4877180;29;20432;-74
2021/12/22 10:25:17;;;;;;;;;;;;;;;;;;4877084;29;19912;-74
2021/12/22 10:27:43;;;;;;;;;;;;;;;;;;4879133;29;19908;-74
2021/12/22 10:30:09;;;;;;;;;;;;;;;;;;4878753;29;19911;-74
2021/12/22 10:32:35;;;;;;;;;;;;;;;;;;4878332;29;20003;-74
2021/12/22 10:35:01;;;;;;;;;;;;;;;;;;4878624;29;19911;-74
2021/12/22 10:37:27;;;;;;;;;;;;;;;;;;4878292;29;20295;-74
2021/12/22 10:39:53;;;;;;;;;;;;;;;;;;4879228;29;19907;-74
2021/12/22 10:42:19;;;;;;;;;;;;;;;;;;4875890;29;19922;-74
2021/12/22 10:44:45;;;;;;;;;;;;;;;;;;4878171;29;19975;-74
2021/12/22 10:47:11;;;;;;;;;;;;;;;;;;4877512;29;19912;-73
2021/12/22 10:49:37;;;;;;;;;;;;;;;;;;4878206;29;19926;-76
2021/12/22 10:52:03;;;;;;;;;;;;;;;;;;4876993;29;19920;-74
2021/12/22 10:54:29;;;;;;;;;;;;;;;;;;4878111;29;19911;-74
2021/12/22 10:56:55;;;;;;;;;;;;;;;;;;4877895;29;19918;-73
2021/12/22 10:59:21;;;;;;;;;;;;;;;;;;4877167;29;20401;-75
2021/12/22 11:01:53;;;;;;;;;;;;;;;;;;4861564;29;19916;-75
2021/12/22 11:04:22;;;;;;;;;;;;;;;;;;4878511;29;20253;-74
2021/12/22 11:06:53;;;;;;;;;;;;;;;;;;4878352;29;20284;-75
2021/12/22 11:09:19;;;;;;;;;;;;;;;;;;4876951;29;20426;-75
2021/12/22 11:11:45;;;;;;;;;;;;;;;;;;4877882;29;19912;-75
2021/12/22 11:14:11;;;;;;;;;;;;;;;;;;4877894;29;19912;-75
2021/12/22 11:16:37;;;;;;;;;;;;;;;;;;4878092;29;19936;-75
2021/12/22 11:19:03;;;;;;;;;;;;;;;;;;4877242;29;19912;-75
2021/12/22 11:21:33;;;;;;;;;;;;;;;;;;4874277;29;19916;-74
2021/12/22 11:23:59;;;;;;;;;;;;;;;;;;4877911;29;20290;-75
2021/12/22 11:26:24;;;;;;;;;;;;;;;;;;4878327;29;19907;-76
2021/12/22 11:28:50;;;;;;;;;;;;;;;;;;4878480;29;19908;-75
2021/12/22 11:31:16;;;;;;;;;;;;;;;;;;4878269;29;20337;-75
2021/12/22 11:33:42;;;;;;;;;;;;;;;;;;4878281;29;19908;-74
2021/12/22 11:36:08;;;;;;;;;;;;;;;;;;4877364;29;19963;-74
2021/12/22 11:38:34;;;;;;;;;;;;;;;;;;4875571;29;20011;-75
2021/12/22 11:41:16;;;;;;;;;;;;;;;;;;4877441;29;19922;-74
2021/12/22 11:43:42;;;;;;;;;;;;;;;;;;4864093;29;19958;-78
2021/12/22 11:46:08;;;;;;;;;;;;;;;;;;4863232;29;19959;-75
2021/12/22 11:48:33;;;;;;;;;;;;;;;;;;4869490;29;19919;-75
2021/12/22 11:50:59;;;;;;;;;;;;;;;;;;4878534;29;20371;-75
2021/12/22 11:53:25;;;;;;;;;;;;;;;;;;4881035;29;20133;-76
2021/12/22 11:55:51;;;;;;;;;;;;;;;;;;4881553;29;19995;-76
2021/12/22 11:58:17;;;;;;;;;;;;;;;;;;4880972;29;19998;-77
2021/12/22 12:00:43;;;;;;;;;;;;;;;;;;4880191;29;19919;-77
2021/12/22 12:03:09;;;;;;;;;;;;;;;;;;4880240;29;19916;-77
2021/12/22 12:05:35;;;;;;;;;;;;;;;;;;4881384;29;20280;-76
2021/12/22 12:08:07;;;;;;;;;;;;;;;;;;4881512;29;19914;-76
2021/12/22 12:10:33;;;;;;;;;;;;;;;;;;4881079;29;19908;-76
2021/12/22 12:13:09;;;;;;;;;;;;;;;;;;4864527;29;20328;-76
2021/12/22 12:15:35;;;;;;;;;;;;;;;;;;4880317;29;19914;-80
2021/12/22 12:23:50;;;;;;;;;;;;;;;;;;4805621;29;19913;-75
2021/12/22 12:26:16;;;;;;;;;;;;;;;;;;4805465;29;20378;-75
2021/12/22 12:28:42;;;;;;;;;;;;;;;;;;4804754;29;19917;-75
2021/12/22 12:31:08;;;;;;;;;;;;;;;;;;4805870;29;19965;-75
2021/12/22 12:33:36;;;;;;;;;;;;;;;;;;4805464;29;19909;-76
2021/12/22 12:36:03;;;;;;;;;;;;;;;;;;4805385;29;20415;-74
2021/12/22 12:38:30;;;;;;;;;;;;;;;;;;4803582;29;19921;-74
2021/12/22 12:41:06;;;;;;;;;;;;;;;;;;4806626;29;19954;-74
2021/12/22 12:43:32;;;;;;;;;;;;;;;;;;4804345;29;19952;-73
2021/12/22 12:45:58;;;;;;;;;;;;;;;;;;4803988;29;19959;-74
2021/12/22 12:48:23;;;;;;;;;;;;;;;;;;4804706;29;20340;-74
2021/12/22 12:50:49;;;;;;;;;;;;;;;;;;4804788;29;19913;-73
2021/12/22 12:53:15;;;;;;;;;;;;;;;;;;4804407;29;20114;-74
2021/12/22 12:55:41;;;;;;;;;;;;;;;;;;4878171;29;20300;-74
2021/12/22 12:58:07;;;;;;;;;;;;;;;;;;4881418;29;19908;-74
2021/12/22 13:00:33;;;;;;;;;;;;;;;;;;4880915;29;19907;-74
2021/12/22 13:02:59;;;;;;;;;;;;;;;;;;4880767;29;19919;-74
2021/12/22 13:05:25;;;;;;;;;;;;;;;;;;4880619;29;19915;-74
2021/12/22 13:07:51;;;;;;;;;;;;;;;;;;4880004;29;20280;-74
2021/12/22 13:10:24;;;;;;;;;;;;;;;;;;4880499;29;19950;-74
2021/12/22 13:13:12;;;;;;;;;;;;;;;;;;4879644;29;19923;-74
2021/12/22 13:15:46;;;;;;;;;;;;;;;;;;4880716;29;19919;-74
2021/12/22 13:18:12;;;;;;;;;;;;;;;;;;4879021;29;19924;-73
2021/12/22 13:20:38;;;;;;;;;;;;;;;;;;4871892;29;19916;-73
2021/12/22 13:23:04;;;;;;;;;;;;;;;;;;4880436;29;19919;-73
2021/12/22 13:25:30;;;;;;;;;;;;;;;;;;4880241;29;19937;-73
2021/12/22 13:27:56;;;;;;;;;;;;;;;;;;4880724;29;19908;-73
2021/12/22 13:30:22;;;;;;;;;;;;;;;;;;4863521;29;19907;-73
2021/12/22 13:32:48;;;;;;;;;;;;;;;;;;4880126;29;19994;-74
2021/12/22 13:35:14;;;;;;;;;;;;;;;;;;4862746;29;20002;-73
2021/12/22 13:37:39;;;;;;;;;;;;;;;;;;4878216;29;20348;-73
2021/12/22 13:40:05;;;;;;;;;;;;;;;;;;4866148;29;20007;-73
2021/12/22 13:42:31;;;;;;;;;;;;;;;;;;4873497;29;19918;-73
2021/12/22 13:44:58;;;;;;;;;;;;;;;;;;4879322;29;20260;-73
2021/12/22 13:47:24;;;;;;;;;;;;;;;;;;4862940;29;20351;-74
2021/12/22 13:49:50;;;;;;;;;;;;;;;;;;4879850;29;20011;-73
2021/12/22 13:52:16;;;;;;;;;;;;;;;;;;4878912;29;19915;-73
2021/12/22 13:54:41;;;;;;;;;;;;;;;;;;4879700;29;20337;-73
2021/12/22 13:57:08;;;;;;;;;;;;;;;;;;4880040;29;19908;-73
2021/12/22 13:59:34;;;;;;;;;;;;;;;;;;4880080;29;19915;-73
2021/12/22 14:02:01;;;;;;;;;;;;;;;;;;4879598;29;19916;-73
2021/12/22 14:04:27;;;;;;;;;;;;;;;;;;4879243;29;19907;-73
2021/12/22 14:06:53;;;;;;;;;;;;;;;;;;4879859;29;20356;-73
2021/12/22 14:09:19;;;;;;;;;;;;;;;;;;4879346;29;19911;-73
2021/12/22 14:11:45;;;;;;;;;;;;;;;;;;4879779;29;19908;-73
2021/12/22 14:14:11;;;;;;;;;;;;;;;;;;4879678;29;19915;-73
2021/12/22 14:16:37;;;;;;;;;;;;;;;;;;4879520;29;19994;-74
2021/12/22 14:19:02;;;;;;;;;;;;;;;;;;4879346;29;20361;-73
2021/12/22 14:21:28;;;;;;;;;;;;;;;;;;4862599;29;19920;-73
2021/12/22 14:23:55;;;;;;;;;;;;;;;;;;4879353;29;19908;-73
2021/12/22 14:26:20;;;;;;;;;;;;;;;;;;4879671;29;20018;-73
2021/12/22 14:28:46;;;;;;;;;;;;;;;;;;4862279;29;19963;-73
2021/12/22 14:31:14;;;;;;;;;;;;;;;;;;4879457;29;20002;-73
2021/12/22 14:33:40;;;;;;;;;;;;;;;;;;4879282;29;19904;-73
2021/12/22 14:36:09;;;;;;;;;;;;;;;;;;4878934;29;19922;-73
2021/12/22 14:38:37;;;;;;;;;;;;;;;;;;4878820;29;19991;-74
2021/12/22 14:41:03;;;;;;;;;;;;;;;;;;4879241;29;20018;-73
2021/12/22 14:43:29;;;;;;;;;;;;;;;;;;4879294;29;19953;-73
2021/12/22 14:45:54;;;;;;;;;;;;;;;;;;4879219;29;19903;-73
2021/12/22 14:48:21;;;;;;;;;;;;;;;;;;4878764;29;19919;-73
2021/12/22 14:50:47;;;;;;;;;;;;;;;;;;4878472;29;19919;-73
2021/12/22 14:53:12;;;;;;;;;;;;;;;;;;4877735;29;19912;-73
2021/12/22 14:55:38;;;;;;;;;;;;;;;;;;4878029;29;19907;-73
2021/12/22 14:58:04;;;;;;;;;;;;;;;;;;4861902;29;19919;-73
2021/12/22 15:00:30;;;;;;;;;;;;;;;;;;4877735;29;19918;-73
2021/12/22 15:02:56;;;;;;;;;;;;;;;;;;4859061;29;19920;-74
2021/12/22 15:05:22;;;;;;;;;;;;;;;;;;4860516;29;19916;-73
2021/12/22 15:07:48;;;;;;;;;;;;;;;;;;4859960;29;19915;-74
2021/12/22 15:10:14;;;;;;;;;;;;;;;;;;4860638;29;20350;-74
2021/12/22 15:12:40;;;;;;;;;;;;;;;;;;4861087;29;19904;-73
2021/12/22 15:15:05;;;;;;;;;;;;;;;;;;4843732;29;19912;-74
2021/12/22 15:17:31;;;;;;;;;;;;;;;;;;4863199;29;20285;-73
2021/12/22 15:19:57;;;;;;;;;;;;;;;;;;4863733;29;19935;-73
2021/12/22 15:22:24;;;;;;;;;;;;;;;;;;4864402;29;19999;-73
2021/12/22 15:24:49;;;;;;;;;;;;;;;;;;4863991;29;19908;-73
2021/12/22 15:27:15;;;;;;;;;;;;;;;;;;4864078;29;19908;-74
2021/12/22 15:29:41;;;;;;;;;;;;;;;;;;4864069;29;20376;-74
2021/12/22 15:32:07;;;;;;;;;;;;;;;;;;4863594;29;19909;-73
2021/12/22 15:34:33;;;;;;;;;;;;;;;;;;4863792;29;19908;-74
2021/12/22 15:37:00;;;;;;;;;;;;;;;;;;4864628;29;19908;-73
2021/12/22 15:39:26;;;;;;;;;;;;;;;;;;4863988;29;20405;-74
2021/12/22 15:41:52;;;;;;;;;;;;;;;;;;4863693;29;20012;-73
2021/12/22 15:44:18;;;;;;;;;;;;;;;;;;4864176;29;20049;-74
2021/12/22 15:46:44;;;;;;;;;;;;;;;;;;4863561;29;19908;-73
2021/12/22 15:49:09;;;;;;;;;;;;;;;;;;4870292;29;20380;-73
2021/12/22 15:51:35;;;;;;;;;;;;;;;;;;4863936;29;19915;-73
2021/12/22 15:54:01;;;;;;;;;;;;;;;;;;4863429;29;19998;-73
2021/12/22 15:56:27;;;;;;;;;;;;;;;;;;4846577;29;20296;-74
2021/12/22 15:58:53;;;;;;;;;;;;;;;;;;4863344;29;19908;-73
2021/12/22 16:01:19;;;;;;;;;;;;;;;;;;4863236;29;19952;-73
2021/12/22 16:03:45;;;;;;;;;;;;;;;;;;4863232;29;19915;-73
2021/12/22 16:06:11;;;;;;;;;;;;;;;;;;4863350;29;19947;-73
2021/12/22 16:08:37;;;;;;;;;;;;;;;;;;4863360;29;20511;-73
2021/12/22 16:11:02;;;;;;;;;;;;;;;;;;4863663;29;20007;-74
2021/12/22 16:13:28;;;;;;;;;;;;;;;;;;4863359;29;19908;-73
2021/12/22 16:15:57;;;;;;;;;;;;;;;;;;4863124;29;19956;-73
2021/12/22 16:18:23;;;;;;;;;;;;;;;;;;4863264;29;20311;-73
2021/12/22 16:20:48;;;;;;;;;;;;;;;;;;4863233;29;19970;-73
2021/12/22 16:23:14;;;;;;;;;;;;;;;;;;4846764;29;20373;-74
2021/12/22 16:25:40;;;;;;;;;;;;;;;;;;4863099;29;19914;-73
2021/12/22 16:28:06;;;;;;;;;;;;;;;;;;4862993;29;19913;-73
2021/12/22 16:30:32;;;;;;;;;;;;;;;;;;4862640;29;19908;-73
2021/12/22 16:32:58;;;;;;;;;;;;;;;;;;4862799;29;19908;-73
2021/12/22 16:35:24;;;;;;;;;;;;;;;;;;4863187;29;19966;-73
2021/12/22 16:37:50;;;;;;;;;;;;;;;;;;4863112;29;19991;-73
2021/12/22 16:40:17;;;;;;;;;;;;;;;;;;4862756;29;19919;-74
2021/12/22 16:42:43;;;;;;;;;;;;;;;;;;4862619;29;19912;-73
2021/12/22 16:45:09;;;;;;;;;;;;;;;;;;4846018;29;20391;-73
2021/12/22 16:47:35;;;;;;;;;;;;;;;;;;4862492;29;19909;-73
2021/12/22 16:50:01;;;;;;;;;;;;;;;;;;4869480;29;19916;-73
2021/12/22 16:52:26;;;;;;;;;;;;;;;;;;4862227;29;19923;-73
2021/12/22 16:54:52;;;;;;;;;;;;;;;;;;4862552;29;19966;-73
2021/12/22 16:57:18;;;;;;;;;;;;;;;;;;4845409;29;20301;-74
2021/12/22 16:59:44;;;;;;;;;;;;;;;;;;4862699;29;20353;-74
2021/12/22 17:02:10;;;;;;;;;;;;;;;;;;4845660;29;19919;-74